Time;durP1;ratioP1;P1;durP2;ratioP2;P2;SDS_P1;SDS_P2;PMS_P1;PMS_P2;Temp;Humidity;BMP_temperature;BMP_pressure;BME280_temperature;BME280_humidity;BME280_pressure;Samples;Min_cycle;Max_cycle;Signal;HPM_P1;HPM_P2
2023/12/16 00:01:45;;;;;;;0.50;0.50;;;;;;;;;;4999013;28;20202;-83
2023/12/16 00:04:16;;;;;;;0.33;0.33;;;;;;;;;;4998103;28;20284;-83
2023/12/16 00:06:45;;;;;;;0.20;0.20;;;;;;;;;;4993511;28;20205;-84
2023/12/16 00:09:14;;;;;;;3.10;0.30;;;;;;;;;;4995668;28;20211;-83
2023/12/16 00:11:44;;;;;;;0.20;0.20;;;;;;;;;;4990739;28;20666;-84
2023/12/16 00:14:18;;;;;;;0.60;0.60;;;;;;;;;;4990497;28;20276;-84
2023/12/16 00:16:46;;;;;;;0.20;0.20;;;;;;;;;;4997290;28;20497;-85
2023/12/16 00:19:15;;;;;;;0.37;0.37;;;;;;;;;;4993748;28;20225;-82
2023/12/16 00:21:44;;;;;;;0.50;0.50;;;;;;;;;;4996920;28;21010;-85
2023/12/16 00:24:14;;;;;;;0.20;0.20;;;;;;;;;;4995332;28;20201;-85
2023/12/16 00:26:45;;;;;;;0.57;0.40;;;;;;;;;;4992721;28;20285;-84
2023/12/16 00:29:14;;;;;;;3.80;0.67;;;;;;;;;;4992095;28;20224;-85
2023/12/16 00:31:43;;;;;;;0.10;0.10;;;;;;;;;;4993878;28;20593;-84
2023/12/16 00:34:12;;;;;;;0.00;0.00;;;;;;;;;;5000689;28;20209;-83
2023/12/16 00:36:42;;;;;;;0.30;0.30;;;;;;;;;;5001357;28;20310;-84
2023/12/16 00:39:10;;;;;;;0.30;0.30;;;;;;;;;;5012805;28;20251;-86
2023/12/16 00:41:40;;;;;;;0.30;0.30;;;;;;;;;;4996409;28;20197;-84
2023/12/16 00:44:08;;;;;;;0.93;0.67;;;;;;;;;;4992210;28;20208;-84
2023/12/16 00:46:38;;;;;;;0.00;0.00;;;;;;;;;;4991831;28;20202;-85
2023/12/16 00:49:08;;;;;;;0.20;0.20;;;;;;;;;;4983815;28;20300;-85
2023/12/16 00:51:35;;;;;;;0.20;0.20;;;;;;;;;;4991202;28;20209;-84
2023/12/16 00:54:06;;;;;;;0.10;0.10;;;;;;;;;;4992541;28;20197;-83
2023/12/16 00:56:35;;;;;;;0.27;0.27;;;;;;;;;;4990769;28;20205;-84
2023/12/16 00:59:05;;;;;;;0.10;0.10;;;;;;;;;;4990960;28;20236;-83
2023/12/16 01:01:37;;;;;;;0.13;0.13;;;;;;;;;;4992266;28;20217;-84
2023/12/16 01:04:07;;;;;;;0.27;0.27;;;;;;;;;;4990322;28;20205;-83
2023/12/16 01:06:38;;;;;;;0.10;0.10;;;;;;;;;;4989204;28;20213;-84
2023/12/16 01:09:07;;;;;;;0.10;0.10;;;;;;;;;;4990833;28;20206;-85
2023/12/16 01:11:36;;;;;;;0.30;0.30;;;;;;;;;;4990259;28;20316;-85
2023/12/16 01:14:05;;;;;;;0.40;0.40;;;;;;;;;;4983390;28;20212;-84
2023/12/16 01:16:35;;;;;;;0.10;0.10;;;;;;;;;;4990706;28;20596;-84
2023/12/16 01:19:06;;;;;;;1.20;1.07;;;;;;;;;;4989269;28;20268;-84
2023/12/16 01:21:40;;;;;;;0.23;0.23;;;;;;;;;;4989077;28;20679;-83
2023/12/16 01:24:09;;;;;;;0.10;0.10;;;;;;;;;;4991776;28;20277;-84
2023/12/16 01:26:37;;;;;;;0.27;0.20;;;;;;;;;;4988611;28;20744;-84
2023/12/16 01:29:05;;;;;;;0.00;0.00;;;;;;;;;;4990435;28;20205;-83
2023/12/16 01:31:35;;;;;;;0.10;0.10;;;;;;;;;;4990176;28;20225;-83
2023/12/16 01:34:04;;;;;;;0.10;0.10;;;;;;;;;;4989398;28;20588;-85
2023/12/16 01:36:34;;;;;;;0.83;0.30;;;;;;;;;;4989344;28;20194;-84
2023/12/16 01:39:08;;;;;;;1.10;0.27;;;;;;;;;;4990305;28;20240;-82
2023/12/16 01:41:41;;;;;;;0.00;0.00;;;;;;;;;;4989168;28;20224;-82
2023/12/16 01:44:12;;;;;;;0.10;0.10;;;;;;;;;;4981881;28;20232;-85
2023/12/16 01:46:41;;;;;;;0.20;0.20;;;;;;;;;;4989652;28;20221;-84
2023/12/16 01:49:13;;;;;;;0.10;0.10;;;;;;;;;;4988686;28;20303;-82
2023/12/16 01:51:41;;;;;;;0.57;0.30;;;;;;;;;;4972765;28;20209;-84
2023/12/16 01:54:13;;;;;;;0.17;0.17;;;;;;;;;;4991136;28;20211;-82
2023/12/16 01:56:44;;;;;;;0.10;0.10;;;;;;;;;;4981837;28;20197;-84
2023/12/16 01:59:12;;;;;;;0.20;0.20;;;;;;;;;;4988483;28;20217;-84
2023/12/16 02:01:42;;;;;;;0.20;0.20;;;;;;;;;;4990529;28;20232;-83
2023/12/16 02:04:12;;;;;;;0.10;0.10;;;;;;;;;;4989876;28;20190;-83
2023/12/16 02:06:44;;;;;;;0.10;0.10;;;;;;;;;;4989307;28;20674;-84
2023/12/16 02:09:17;;;;;;;0.13;0.13;;;;;;;;;;4989739;28;20205;-84
2023/12/16 02:11:46;;;;;;;0.40;0.20;;;;;;;;;;4988875;28;20604;-83
2023/12/16 02:14:16;;;;;;;0.30;0.20;;;;;;;;;;4989068;28;20722;-83
2023/12/16 02:16:50;;;;;;;0.23;0.23;;;;;;;;;;4989987;28;20574;-83
2023/12/16 02:19:26;;;;;;;0.13;0.13;;;;;;;;;;4988032;28;20229;-83
2023/12/16 02:21:57;;;;;;;0.20;0.20;;;;;;;;;;4989033;28;20212;-84
2023/12/16 02:24:28;;;;;;;0.20;0.20;;;;;;;;;;4986081;28;20233;-87
2023/12/16 02:26:57;;;;;;;0.30;0.30;;;;;;;;;;4988093;28;20206;-83
2023/12/16 02:29:29;;;;;;;0.10;0.10;;;;;;;;;;4989078;28;20272;-84
2023/12/16 02:31:59;;;;;;;0.30;0.30;;;;;;;;;;4981434;28;20261;-84
2023/12/16 02:34:29;;;;;;;0.03;0.03;;;;;;;;;;4988664;28;20212;-85
2023/12/16 02:37:02;;;;;;;0.10;0.10;;;;;;;;;;4987835;28;20558;-84
2023/12/16 02:39:33;;;;;;;0.13;0.13;;;;;;;;;;4989245;28;20590;-84
2023/12/16 02:42:03;;;;;;;0.10;0.10;;;;;;;;;;4988701;28;20244;-84
2023/12/16 02:44:34;;;;;;;0.20;0.10;;;;;;;;;;4988832;28;20213;-84
2023/12/16 02:47:12;;;;;;;0.13;0.13;;;;;;;;;;4989531;28;20236;-83
2023/12/16 02:49:40;;;;;;;0.10;0.10;;;;;;;;;;4984105;28;20204;-84
2023/12/16 02:52:09;;;;;;;0.30;0.20;;;;;;;;;;4992904;28;20216;-84
2023/12/16 02:54:40;;;;;;;0.10;0.10;;;;;;;;;;4988770;28;20482;-84
2023/12/16 02:57:11;;;;;;;0.20;0.20;;;;;;;;;;4988127;28;20268;-84
2023/12/16 02:59:40;;;;;;;0.10;0.10;;;;;;;;;;4988712;28;20610;-84
2023/12/16 03:02:11;;;;;;;0.37;0.30;;;;;;;;;;4989515;28;20201;-85
2023/12/16 03:04:41;;;;;;;0.40;0.20;;;;;;;;;;4988770;28;20438;-84
2023/12/16 03:07:09;;;;;;;0.10;0.10;;;;;;;;;;4988320;28;20485;-85
2023/12/16 03:09:41;;;;;;;0.37;0.37;;;;;;;;;;4988853;28;20216;-85
2023/12/16 03:12:12;;;;;;;0.30;0.20;;;;;;;;;;4988322;28;20197;-84
2023/12/16 03:14:44;;;;;;;0.30;0.30;;;;;;;;;;4990804;28;20652;-84
2023/12/16 03:17:16;;;;;;;0.20;0.20;;;;;;;;;;4989569;28;20252;-83
2023/12/16 03:19:44;;;;;;;0.10;0.10;;;;;;;;;;4974811;28;20328;-84
2023/12/16 03:22:16;;;;;;;0.10;0.10;;;;;;;;;;4985067;28;20328;-84
2023/12/16 03:24:47;;;;;;;0.13;0.13;;;;;;;;;;4970679;28;20220;-85
2023/12/16 03:27:19;;;;;;;0.10;0.10;;;;;;;;;;4968053;28;20297;-84
2023/12/16 03:29:48;;;;;;;0.10;0.10;;;;;;;;;;4969633;28;20297;-84
2023/12/16 03:32:19;;;;;;;0.10;0.10;;;;;;;;;;4968727;28;20221;-83
2023/12/16 03:34:48;;;;;;;0.10;0.10;;;;;;;;;;4969714;28;20242;-84
2023/12/16 03:37:21;;;;;;;0.40;0.40;;;;;;;;;;4969184;28;20213;-84
2023/12/16 03:39:52;;;;;;;0.10;0.10;;;;;;;;;;4968005;28;20237;-84
2023/12/16 03:42:21;;;;;;;0.13;0.13;;;;;;;;;;4969510;28;20201;-84
2023/12/16 03:44:50;;;;;;;0.50;0.30;;;;;;;;;;4968829;28;20224;-85
2023/12/16 03:47:21;;;;;;;0.20;0.20;;;;;;;;;;4967615;28;20214;-84
2023/12/16 03:49:49;;;;;;;1.30;0.63;;;;;;;;;;4969621;28;20202;-83
2023/12/16 03:52:23;;;;;;;0.30;0.10;;;;;;;;;;4971417;28;20589;-84
2023/12/16 03:54:59;;;;;;;0.10;0.10;;;;;;;;;;4972498;28;20573;-84
2023/12/16 03:57:29;;;;;;;0.23;0.20;;;;;;;;;;4973605;28;20260;-85
2023/12/16 04:00:00;;;;;;;0.20;0.20;;;;;;;;;;4972932;28;20226;-85
2023/12/16 04:02:29;;;;;;;0.30;0.30;;;;;;;;;;4970271;28;20206;-84
2023/12/16 04:05:00;;;;;;;0.10;0.10;;;;;;;;;;4974954;28;20723;-83
2023/12/16 04:07:29;;;;;;;0.40;0.20;;;;;;;;;;4976097;28;20664;-83
2023/12/16 04:10:02;;;;;;;1.40;0.43;;;;;;;;;;4971704;28;20214;-85
2023/12/16 04:12:34;;;;;;;0.40;0.40;;;;;;;;;;4968642;28;20675;-85
2023/12/16 04:15:07;;;;;;;0.33;0.33;;;;;;;;;;4968403;28;20240;-86
2023/12/16 04:17:37;;;;;;;0.47;0.10;;;;;;;;;;4974909;28;20284;-84
2023/12/16 04:20:08;;;;;;;0.37;0.37;;;;;;;;;;4988900;28;20264;-85
2023/12/16 04:22:41;;;;;;;0.30;0.30;;;;;;;;;;4989928;28;20225;-84
2023/12/16 04:25:12;;;;;;;0.40;0.40;;;;;;;;;;4983734;28;20806;-84
2023/12/16 04:27:42;;;;;;;0.20;0.20;;;;;;;;;;4992408;28;20205;-84
2023/12/16 04:30:17;;;;;;;0.50;0.50;;;;;;;;;;4992170;28;20225;-84
2023/12/16 04:32:49;;;;;;;0.20;0.20;;;;;;;;;;4991229;28;20267;-86
2023/12/16 04:35:26;;;;;;;0.10;0.10;;;;;;;;;;4990987;28;20197;-85
2023/12/16 04:37:58;;;;;;;0.43;0.43;;;;;;;;;;4991594;28;20737;-85
2023/12/16 04:40:33;;;;;;;0.13;0.13;;;;;;;;;;4990214;28;20635;-86
2023/12/16 04:43:02;;;;;;;0.37;0.37;;;;;;;;;;4992229;28;20224;-85
2023/12/16 04:45:35;;;;;;;0.83;0.40;;;;;;;;;;4991471;28;20217;-85
2023/12/16 04:48:11;;;;;;;0.30;0.30;;;;;;;;;;4991121;28;20216;-85
2023/12/16 04:50:45;;;;;;;3.27;0.47;;;;;;;;;;4992409;28;20208;-85
2023/12/16 04:53:16;;;;;;;0.30;0.27;;;;;;;;;;4984535;28;20201;-86
2023/12/16 04:55:48;;;;;;;0.90;0.90;;;;;;;;;;4991582;28;20216;-86
2023/12/16 04:58:18;;;;;;;0.43;0.43;;;;;;;;;;4984438;28;20229;-84
2023/12/16 05:00:52;;;;;;;1.00;0.90;;;;;;;;;;4990882;28;20298;-84
2023/12/16 05:03:22;;;;;;;0.30;0.20;;;;;;;;;;4992422;28;20376;-86
2023/12/16 05:05:54;;;;;;;0.20;0.20;;;;;;;;;;4991911;28;20205;-86
2023/12/16 05:08:25;;;;;;;0.50;0.20;;;;;;;;;;4991311;28;20197;-87
2023/12/16 05:11:02;;;;;;;4.33;0.53;;;;;;;;;;4993189;28;20369;-87
2023/12/16 05:13:42;;;;;;;0.10;0.10;;;;;;;;;;4992389;28;20205;-87
2023/12/16 05:16:10;;;;;;;0.10;0.10;;;;;;;;;;4985391;28;20236;-87
2023/12/16 05:18:40;;;;;;;0.20;0.20;;;;;;;;;;4991772;28;20245;-87
2023/12/16 05:21:11;;;;;;;0.03;0.03;;;;;;;;;;4983270;28;20647;-86
2023/12/16 05:23:42;;;;;;;0.40;0.40;;;;;;;;;;4991922;28;20197;-85
2023/12/16 05:26:20;;;;;;;0.27;0.27;;;;;;;;;;4991836;28;20300;-85
2023/12/16 05:28:52;;;;;;;0.30;0.30;;;;;;;;;;4992089;28;20213;-86
2023/12/16 05:31:24;;;;;;;0.17;0.17;;;;;;;;;;4989996;28;20213;-86
2023/12/16 05:33:56;;;;;;;0.20;0.20;;;;;;;;;;4991629;28;20263;-86
2023/12/16 05:36:28;;;;;;;0.20;0.20;;;;;;;;;;4990623;28;20209;-86
2023/12/16 05:39:01;;;;;;;0.20;0.20;;;;;;;;;;4991452;28;20205;-86
2023/12/16 05:41:36;;;;;;;0.10;0.10;;;;;;;;;;4990621;28;20225;-84
2023/12/16 05:44:10;;;;;;;0.30;0.30;;;;;;;;;;4984822;28;20201;-86
2023/12/16 05:46:42;;;;;;;0.10;0.10;;;;;;;;;;4989950;28;20212;-85
2023/12/16 05:49:14;;;;;;;0.37;0.37;;;;;;;;;;4992256;28;20292;-85
2023/12/16 05:51:45;;;;;;;0.30;0.30;;;;;;;;;;4992252;28;20216;-86
2023/12/16 05:54:17;;;;;;;0.20;0.20;;;;;;;;;;4997641;28;20264;-87
2023/12/16 05:56:51;;;;;;;1.27;0.63;;;;;;;;;;5008745;28;20201;-87
2023/12/16 05:59:22;;;;;;;0.20;0.20;;;;;;;;;;5010765;28;20860;-87
2023/12/16 06:01:52;;;;;;;0.30;0.30;;;;;;;;;;5009929;28;20200;-85
2023/12/16 06:04:25;;;;;;;0.30;0.30;;;;;;;;;;4994985;28;20209;-86
2023/12/16 06:06:58;;;;;;;0.10;0.10;;;;;;;;;;4986913;28;20362;-87
2023/12/16 06:09:31;;;;;;;0.10;0.10;;;;;;;;;;4996366;28;20202;-87
2023/12/16 06:12:05;;;;;;;0.40;0.40;;;;;;;;;;4988917;28;20223;-87
2023/12/16 06:14:40;;;;;;;0.20;0.20;;;;;;;;;;4996321;28;20193;-86
2023/12/16 06:17:14;;;;;;;0.13;0.13;;;;;;;;;;4996456;28;20237;-87
2023/12/16 06:19:45;;;;;;;0.40;0.40;;;;;;;;;;4997249;28;20263;-86
2023/12/16 06:22:27;;;;;;;0.20;0.20;;;;;;;;;;4996286;28;20194;-86
2023/12/16 06:25:05;;;;;;;0.37;0.37;;;;;;;;;;4995128;28;20561;-86
2023/12/16 06:27:43;;;;;;;0.20;0.20;;;;;;;;;;4995035;28;20307;-87
2023/12/16 06:30:15;;;;;;;0.20;0.20;;;;;;;;;;4975028;28;20210;-86
2023/12/16 06:32:47;;;;;;;0.43;0.43;;;;;;;;;;4995803;28;20770;-87
2023/12/16 06:35:16;;;;;;;0.43;0.43;;;;;;;;;;4993847;28;20248;-87
2023/12/16 06:37:45;;;;;;;0.30;0.30;;;;;;;;;;4990563;28;20204;-85
2023/12/16 06:40:18;;;;;;;0.20;0.20;;;;;;;;;;4990748;28;20229;-87
2023/12/16 06:43:04;;;;;;;1.23;0.73;;;;;;;;;;4991298;28;20302;-85
2023/12/16 06:45:38;;;;;;;0.10;0.10;;;;;;;;;;4991484;28;20319;-86
2023/12/16 06:48:06;;;;;;;1.50;0.93;;;;;;;;;;4987020;28;20209;-86
2023/12/16 06:50:46;;;;;;;0.97;0.40;;;;;;;;;;4990091;28;20205;-86
2023/12/16 06:53:17;;;;;;;0.10;0.10;;;;;;;;;;4989452;28;20229;-87
2023/12/16 06:55:53;;;;;;;0.10;0.10;;;;;;;;;;4990879;28;20228;-87
2023/12/16 06:58:26;;;;;;;0.40;0.40;;;;;;;;;;4995492;28;20255;-86
2023/12/16 07:00:56;;;;;;;0.30;0.30;;;;;;;;;;4997865;28;20244;-86
2023/12/16 07:03:28;;;;;;;0.37;0.37;;;;;;;;;;5000498;28;20263;-86
2023/12/16 07:05:58;;;;;;;0.37;0.37;;;;;;;;;;4994360;28;20586;-88
2023/12/16 07:08:28;;;;;;;0.20;0.20;;;;;;;;;;4991024;28;20209;-87
2023/12/16 07:11:01;;;;;;;0.17;0.17;;;;;;;;;;4989164;28;20717;-86
2023/12/16 07:13:43;;;;;;;0.30;0.30;;;;;;;;;;4989231;28;20686;-87
2023/12/16 07:16:30;;;;;;;1.23;1.17;;;;;;;;;;4989807;28;20284;-86
2023/12/16 07:19:01;;;;;;;0.57;0.43;;;;;;;;;;4995997;28;20314;-86
2023/12/16 07:21:34;;;;;;;0.50;0.37;;;;;;;;;;4999862;28;20229;-87
2023/12/16 07:24:06;;;;;;;0.30;0.30;;;;;;;;;;4991703;28;20240;-85
2023/12/16 07:26:37;;;;;;;0.57;0.57;;;;;;;;;;4990793;28;20200;-87
2023/12/16 07:29:09;;;;;;;0.10;0.10;;;;;;;;;;4990426;28;20205;-85
2023/12/16 07:31:43;;;;;;;0.10;0.10;;;;;;;;;;4992852;28;20243;-87
2023/12/16 07:34:34;;;;;;;0.13;0.13;;;;;;;;;;4995992;28;20272;-87
2023/12/16 07:39:56;;;;;;;0.60;0.60;;;;;;;;;;4995702;28;20632;-87
2023/12/16 07:42:27;;;;;;;0.73;0.60;;;;;;;;;;4997705;28;20269;-87
2023/12/16 07:45:12;;;;;;;0.50;0.50;;;;;;;;;;5002779;28;20255;-86
2023/12/16 07:47:42;;;;;;;0.73;0.27;;;;;;;;;;4999570;28;20213;-86
2023/12/16 07:50:16;;;;;;;1.07;1.07;;;;;;;;;;4987117;28;20640;-85
2023/12/16 07:52:49;;;;;;;0.10;0.10;;;;;;;;;;4996891;28;20207;-87
2023/12/16 07:55:19;;;;;;;0.20;0.20;;;;;;;;;;5000354;28;20203;-86
2023/12/16 07:57:50;;;;;;;0.33;0.33;;;;;;;;;;5000827;28;20236;-86
2023/12/16 08:00:23;;;;;;;5.43;0.40;;;;;;;;;;4999962;28;20256;-84
2023/12/16 08:02:52;;;;;;;0.30;0.30;;;;;;;;;;5003971;28;20220;-86
2023/12/16 08:05:22;;;;;;;0.30;0.30;;;;;;;;;;5004698;28;20217;-86
2023/12/16 08:07:52;;;;;;;0.77;0.77;;;;;;;;;;4993484;28;20236;-87
2023/12/16 08:10:44;;;;;;;0.40;0.40;;;;;;;;;;4982153;28;20649;-86
2023/12/16 08:13:13;;;;;;;1.20;1.10;;;;;;;;;;4988887;28;20237;-86
2023/12/16 08:15:46;;;;;;;0.63;0.50;;;;;;;;;;4992720;28;20733;-87
2023/12/16 08:18:25;;;;;;;0.93;0.60;;;;;;;;;;4986387;28;20237;-86
2023/12/16 08:20:56;;;;;;;0.47;0.47;;;;;;;;;;4982540;28;20233;-86
2023/12/16 08:23:29;;;;;;;1.03;0.50;;;;;;;;;;4990955;28;20223;-86
2023/12/16 08:26:08;;;;;;;0.20;0.17;;;;;;;;;;4986380;28;20197;-85
2023/12/16 08:28:40;;;;;;;0.43;0.43;;;;;;;;;;4989601;28;20336;-85
2023/12/16 08:31:13;;;;;;;0.10;0.10;;;;;;;;;;4986549;28;20272;-87
2023/12/16 08:33:42;;;;;;;0.40;0.40;;;;;;;;;;4991326;28;20228;-86
2023/12/16 08:36:16;;;;;;;0.30;0.30;;;;;;;;;;4999317;28;20198;-87
2023/12/16 08:38:48;;;;;;;0.37;0.37;;;;;;;;;;5006992;28;20215;-86
2023/12/16 08:41:18;;;;;;;0.60;0.60;;;;;;;;;;5014074;28;20205;-85
2023/12/16 08:43:56;;;;;;;1.50;1.20;;;;;;;;;;4995477;28;20624;-84
2023/12/16 08:46:51;;;;;;;0.40;0.40;;;;;;;;;;4997037;28;20708;-83
2023/12/16 08:49:24;;;;;;;0.93;0.93;;;;;;;;;;4998271;28;20209;-85
2023/12/16 08:51:55;;;;;;;0.17;0.17;;;;;;;;;;4990759;28;20198;-85
2023/12/16 08:54:24;;;;;;;0.60;0.60;;;;;;;;;;4997094;28;20296;-84
2023/12/16 08:57:02;;;;;;;0.30;0.30;;;;;;;;;;4993062;28;20671;-84
2023/12/16 08:59:31;;;;;;;0.37;0.10;;;;;;;;;;4993447;28;20204;-86
2023/12/16 09:02:05;;;;;;;0.20;0.20;;;;;;;;;;4992910;28;20787;-86
2023/12/16 09:04:36;;;;;;;0.53;0.30;;;;;;;;;;4991360;28;20205;-85
2023/12/16 09:07:07;;;;;;;0.00;0.00;;;;;;;;;;4992174;28;20243;-86
2023/12/16 09:09:40;;;;;;;0.73;0.50;;;;;;;;;;4984099;28;20655;-86
2023/12/16 09:12:15;;;;;;;0.50;0.50;;;;;;;;;;4990989;28;20193;-86
2023/12/16 09:14:48;;;;;;;0.60;0.50;;;;;;;;;;4983149;28;20677;-85
2023/12/16 09:17:23;;;;;;;0.30;0.30;;;;;;;;;;4987250;28;20241;-86
2023/12/16 09:19:54;;;;;;;0.40;0.40;;;;;;;;;;4971352;28;20233;-86
2023/12/16 09:22:25;;;;;;;0.40;0.40;;;;;;;;;;4970192;28;20210;-85
2023/12/16 09:24:53;;;;;;;0.90;0.30;;;;;;;;;;4971406;28;20194;-86
2023/12/16 09:27:24;;;;;;;1.00;0.60;;;;;;;;;;4970231;28;20202;-85
2023/12/16 09:29:54;;;;;;;0.20;0.20;;;;;;;;;;4970818;28;20217;-85
2023/12/16 09:32:27;;;;;;;0.30;0.30;;;;;;;;;;4963171;28;20723;-85
2023/12/16 09:35:01;;;;;;;0.20;0.20;;;;;;;;;;4970981;28;20201;-86
2023/12/16 09:37:37;;;;;;;0.10;0.10;;;;;;;;;;4971087;28;20217;-83
2023/12/16 09:40:08;;;;;;;0.50;0.50;;;;;;;;;;4971625;28;20209;-86
2023/12/16 09:42:40;;;;;;;1.73;0.40;;;;;;;;;;4970317;28;20198;-84
2023/12/16 09:45:11;;;;;;;0.20;0.20;;;;;;;;;;4971173;28;20198;-85
2023/12/16 09:47:41;;;;;;;0.40;0.40;;;;;;;;;;4970707;28;20407;-84
2023/12/16 09:50:12;;;;;;;0.03;0.03;;;;;;;;;;4970779;28;20568;-85
2023/12/16 09:52:41;;;;;;;0.43;0.30;;;;;;;;;;4970975;28;20213;-84
2023/12/16 09:55:09;;;;;;;0.57;0.30;;;;;;;;;;4970327;28;20687;-83
2023/12/16 09:57:39;;;;;;;0.33;0.33;;;;;;;;;;4970233;28;20292;-84
2023/12/16 10:00:12;;;;;;;0.57;0.57;;;;;;;;;;4971364;28;20202;-85
2023/12/16 10:02:47;;;;;;;0.33;0.33;;;;;;;;;;4968686;28;20209;-84
2023/12/16 10:05:19;;;;;;;0.30;0.30;;;;;;;;;;4967181;28;20209;-85
2023/12/16 10:07:47;;;;;;;6.33;0.40;;;;;;;;;;4970697;28;20214;-84
2023/12/16 10:10:17;;;;;;;1.00;0.33;;;;;;;;;;4978998;28;20206;-85
2023/12/16 10:12:47;;;;;;;1.10;0.97;;;;;;;;;;4969584;28;20206;-85
2023/12/16 10:15:33;;;;;;;0.27;0.27;;;;;;;;;;4970376;28;20233;-83
2023/12/16 10:18:03;;;;;;;0.40;0.40;;;;;;;;;;4972207;28;20847;-84
2023/12/16 10:20:34;;;;;;;0.57;0.57;;;;;;;;;;4987844;28;20236;-84
2023/12/16 10:23:08;;;;;;;1.50;0.53;;;;;;;;;;4989690;28;20285;-85
2023/12/16 10:25:38;;;;;;;0.20;0.20;;;;;;;;;;4989280;28;20209;-83
2023/12/16 10:28:06;;;;;;;6.90;0.73;;;;;;;;;;4988160;28;20632;-85
2023/12/16 10:30:38;;;;;;;0.20;0.20;;;;;;;;;;4988300;28;20824;-85
2023/12/16 10:33:09;;;;;;;0.57;0.57;;;;;;;;;;4988373;28;20229;-85
2023/12/16 10:35:39;;;;;;;1.03;0.67;;;;;;;;;;4988305;28;20728;-84
2023/12/16 10:38:11;;;;;;;3.13;0.40;;;;;;;;;;4988276;28;20216;-85
2023/12/16 10:40:39;;;;;;;0.20;0.20;;;;;;;;;;4989220;28;20221;-84
2023/12/16 10:43:10;;;;;;;0.03;0.03;;;;;;;;;;4988992;28;20682;-84
2023/12/16 10:45:40;;;;;;;0.30;0.30;;;;;;;;;;4988667;28;20276;-84
2023/12/16 10:48:16;;;;;;;1.90;0.90;;;;;;;;;;4980740;28;20224;-83
2023/12/16 10:50:48;;;;;;;0.13;0.13;;;;;;;;;;4987873;28;20689;-85
2023/12/16 10:53:23;;;;;;;2.53;0.37;;;;;;;;;;4988358;28;20193;-82
2023/12/16 10:55:59;;;;;;;0.40;0.20;;;;;;;;;;4988131;28;20192;-84
2023/12/16 10:58:30;;;;;;;0.10;0.10;;;;;;;;;;4987824;28;20236;-85
2023/12/16 11:01:06;;;;;;;3.27;0.47;;;;;;;;;;4988678;28;20283;-83
2023/12/16 11:03:52;;;;;;;0.10;0.10;;;;;;;;;;4988046;28;20768;-84
2023/12/16 11:06:31;;;;;;;0.47;0.13;;;;;;;;;;4972924;28;20213;-84
2023/12/16 11:09:06;;;;;;;0.10;0.10;;;;;;;;;;4989321;28;20390;-83
2023/12/16 11:11:45;;;;;;;0.43;0.43;;;;;;;;;;4987762;28;20220;-81
2023/12/16 11:14:15;;;;;;;0.60;0.60;;;;;;;;;;4988690;28;20304;-82
2023/12/16 11:16:51;;;;;;;0.17;0.17;;;;;;;;;;4987464;28;20292;-82
2023/12/16 11:19:28;;;;;;;2.67;0.40;;;;;;;;;;4948769;28;20194;-82
2023/12/16 11:22:01;;;;;;;0.37;0.37;;;;;;;;;;4948510;28;20242;-82
2023/12/16 11:24:32;;;;;;;1.60;0.70;;;;;;;;;;4949680;28;20199;-82
2023/12/16 11:27:06;;;;;;;1.00;0.30;;;;;;;;;;4947503;28;20273;-82
2023/12/16 11:29:36;;;;;;;0.90;0.90;;;;;;;;;;4948535;29;20232;-82
2023/12/16 11:32:05;;;;;;;0.27;0.20;;;;;;;;;;4950524;28;20226;-83
2023/12/16 11:34:44;;;;;;;0.97;0.60;;;;;;;;;;4950831;28;20663;-83
2023/12/16 11:37:41;;;;;;;1.80;1.27;;;;;;;;;;4952605;29;20212;-85
2023/12/16 11:40:34;;;;;;;0.70;0.70;;;;;;;;;;4952655;28;20277;-80
2023/12/16 11:43:03;;;;;;;0.30;0.30;;;;;;;;;;4951573;28;20210;-81
2023/12/16 11:45:39;;;;;;;0.03;0.03;;;;;;;;;;4951798;28;20672;-81
2023/12/16 11:48:09;;;;;;;0.40;0.40;;;;;;;;;;4951285;28;20202;-82
2023/12/16 11:50:39;;;;;;;0.40;0.40;;;;;;;;;;4952202;29;20210;-83
2023/12/16 11:53:10;;;;;;;0.47;0.47;;;;;;;;;;4952645;28;20944;-82
2023/12/16 11:55:40;;;;;;;0.33;0.33;;;;;;;;;;4951569;28;20278;-82
2023/12/16 11:58:12;;;;;;;0.30;0.30;;;;;;;;;;4952505;28;20198;-81
2023/12/16 12:00:41;;;;;;;0.60;0.60;;;;;;;;;;4950851;28;20238;-83
2023/12/16 12:03:13;;;;;;;0.90;0.90;;;;;;;;;;4951808;28;20206;-82
2023/12/16 12:05:44;;;;;;;0.57;0.57;;;;;;;;;;4952814;28;20747;-83
2023/12/16 12:08:16;;;;;;;1.33;0.80;;;;;;;;;;4952204;28;20647;-82
2023/12/16 12:10:46;;;;;;;1.37;1.27;;;;;;;;;;4951154;28;20395;-81
2023/12/16 12:13:15;;;;;;;0.57;0.57;;;;;;;;;;4951243;28;20605;-83
2023/12/16 12:15:50;;;;;;;1.13;0.87;;;;;;;;;;4951513;28;20335;-82
2023/12/16 12:18:52;;;;;;;3.63;1.27;;;;;;;;;;4974009;28;20236;-83
2023/12/16 12:21:20;;;;;;;2.70;1.57;;;;;;;;;;4894189;28;20240;-82
2023/12/16 12:23:50;;;;;;;1.43;1.40;;;;;;;;;;4991321;28;20201;-82
2023/12/16 12:26:20;;;;;;;1.93;1.83;;;;;;;;;;4989456;28;20826;-83
2023/12/16 12:28:58;;;;;;;5.63;1.00;;;;;;;;;;4989860;28;20213;-83
2023/12/16 12:31:27;;;;;;;3.50;1.20;;;;;;;;;;4990171;28;20660;-83
2023/12/16 12:33:56;;;;;;;1.67;1.57;;;;;;;;;;4988195;28;20248;-83
2023/12/16 12:36:26;;;;;;;1.60;1.37;;;;;;;;;;4988516;28;20500;-81
2023/12/16 12:38:58;;;;;;;0.93;0.93;;;;;;;;;;4988370;28;20592;-82
2023/12/16 12:41:29;;;;;;;2.30;1.93;;;;;;;;;;4989109;28;20311;-83
2023/12/16 12:44:01;;;;;;;1.97;0.87;;;;;;;;;;4991968;28;20576;-83
2023/12/16 12:46:31;;;;;;;1.37;1.27;;;;;;;;;;4991262;28;20292;-83
2023/12/16 12:49:00;;;;;;;1.50;1.40;;;;;;;;;;5003023;28;20293;-82
2023/12/16 12:51:27;;;;;;;2.33;1.67;;;;;;;;;;4995737;28;20205;-84
2023/12/16 12:54:02;;;;;;;2.97;1.13;;;;;;;;;;4993149;28;20205;-83
2023/12/16 12:56:30;;;;;;;1.87;1.73;;;;;;;;;;4991268;28;20200;-84
2023/12/16 12:59:00;;;;;;;3.47;1.90;;;;;;;;;;4983293;28;20208;-83
2023/12/16 13:01:31;;;;;;;1.20;1.20;;;;;;;;;;4990454;28;20324;-83
2023/12/16 13:04:03;;;;;;;4.90;0.90;;;;;;;;;;4990679;28;20205;-84
2023/12/16 13:06:32;;;;;;;1.20;1.20;;;;;;;;;;4989858;28;20235;-83
2023/12/16 13:09:05;;;;;;;1.07;1.07;;;;;;;;;;4991099;28;20203;-82
2023/12/16 13:11:36;;;;;;;1.40;0.67;;;;;;;;;;4995237;28;20193;-83
2023/12/16 13:14:05;;;;;;;1.50;0.70;;;;;;;;;;4994181;28;20291;-82
2023/12/16 13:16:34;;;;;;;1.37;1.13;;;;;;;;;;4993415;28;20240;-82
2023/12/16 13:19:01;;;;;;;1.63;0.73;;;;;;;;;;4994387;28;20244;-83
2023/12/16 13:21:32;;;;;;;0.70;0.40;;;;;;;;;;4992522;28;20240;-83
2023/12/16 13:24:02;;;;;;;2.13;0.93;;;;;;;;;;4992282;28;20275;-85
2023/12/16 13:26:32;;;;;;;0.67;0.67;;;;;;;;;;4990293;28;20197;-83
2023/12/16 13:29:01;;;;;;;0.50;0.50;;;;;;;;;;4989807;28;20251;-83
2023/12/16 13:31:29;;;;;;;13.97;0.83;;;;;;;;;;4989334;28;20186;-82
2023/12/16 13:33:59;;;;;;;0.63;0.63;;;;;;;;;;4989125;28;20624;-81
2023/12/16 13:36:30;;;;;;;0.30;0.30;;;;;;;;;;4989372;28;20252;-82
2023/12/16 13:38:59;;;;;;;0.47;0.47;;;;;;;;;;4989641;28;20204;-83
2023/12/16 13:41:29;;;;;;;0.87;0.87;;;;;;;;;;4990370;28;20297;-83
2023/12/16 13:44:01;;;;;;;0.83;0.83;;;;;;;;;;4989250;28;20213;-83
2023/12/16 13:46:38;;;;;;;0.30;0.30;;;;;;;;;;4987590;28;20682;-85
2023/12/16 13:49:12;;;;;;;1.00;1.00;;;;;;;;;;4989287;28;20586;-82
2023/12/16 13:51:40;;;;;;;0.77;0.77;;;;;;;;;;4987902;28;20217;-83
2023/12/16 13:54:10;;;;;;;0.87;0.87;;;;;;;;;;4988767;28;20193;-82
2023/12/16 13:56:39;;;;;;;1.80;1.40;;;;;;;;;;4988504;28;20228;-85
2023/12/16 13:59:10;;;;;;;1.77;1.17;;;;;;;;;;4991250;28;20519;-83
2023/12/16 14:01:38;;;;;;;1.43;1.37;;;;;;;;;;4994882;28;20257;-83
2023/12/16 14:04:10;;;;;;;1.33;1.23;;;;;;;;;;4989335;28;20318;-84
2023/12/16 14:06:52;;;;;;;2.07;0.73;;;;;;;;;;4988005;28;20288;-83
2023/12/16 14:09:22;;;;;;;1.20;1.20;;;;;;;;;;4988330;28;20227;-83
2023/12/16 14:11:55;;;;;;;1.60;1.30;;;;;;;;;;4989610;28;20287;-84
2023/12/16 14:14:25;;;;;;;0.80;0.70;;;;;;;;;;4989072;28;20674;-85
2023/12/16 14:16:53;;;;;;;1.20;1.13;;;;;;;;;;4980909;28;20320;-82
2023/12/16 14:19:22;;;;;;;0.63;0.63;;;;;;;;;;4987724;28;20809;-82
2023/12/16 14:21:50;;;;;;;0.80;0.80;;;;;;;;;;4987811;28;20646;-85
2023/12/16 14:24:20;;;;;;;1.13;1.13;;;;;;;;;;4988615;28;20197;-83
2023/12/16 14:26:54;;;;;;;1.40;1.30;;;;;;;;;;4989301;28;20471;-82
2023/12/16 14:29:28;;;;;;;1.40;1.37;;;;;;;;;;4981713;28;20199;-84
2023/12/16 14:32:00;;;;;;;0.53;0.53;;;;;;;;;;4988377;28;20229;-84
2023/12/16 14:34:30;;;;;;;0.77;0.77;;;;;;;;;;4987742;28;20248;-84
2023/12/16 14:36:59;;;;;;;1.43;1.00;;;;;;;;;;4988371;28;20276;-83
2023/12/16 14:39:29;;;;;;;1.23;1.13;;;;;;;;;;4989041;28;20189;-83
2023/12/16 14:42:01;;;;;;;1.40;1.07;;;;;;;;;;4989160;28;20293;-83
2023/12/16 14:44:33;;;;;;;1.03;0.80;;;;;;;;;;4987699;28;20255;-83
2023/12/16 14:47:01;;;;;;;1.30;1.20;;;;;;;;;;4979384;28;20216;-84
2023/12/16 14:49:33;;;;;;;2.10;1.87;;;;;;;;;;4988143;28;20213;-84
2023/12/16 14:52:01;;;;;;;1.30;0.87;;;;;;;;;;4987446;28;20205;-83
2023/12/16 14:54:30;;;;;;;1.47;1.37;;;;;;;;;;4988401;28;20312;-84
2023/12/16 14:57:04;;;;;;;0.90;0.73;;;;;;;;;;4986898;28;20678;-81
2023/12/16 14:59:41;;;;;;;1.20;1.20;;;;;;;;;;4980346;28;20206;-82
2023/12/16 15:02:13;;;;;;;1.27;1.20;;;;;;;;;;4986527;28;20232;-84
2023/12/16 15:04:43;;;;;;;2.40;1.63;;;;;;;;;;4980050;28;20872;-82
2023/12/16 15:07:13;;;;;;;5.87;1.00;;;;;;;;;;4986530;28;20213;-84
2023/12/16 15:09:42;;;;;;;1.40;1.40;;;;;;;;;;4987556;28;20205;-82
2023/12/16 15:12:11;;;;;;;3.90;1.37;;;;;;;;;;4987186;28;20726;-83
2023/12/16 15:14:40;;;;;;;1.87;1.30;;;;;;;;;;4987146;28;21010;-81